Time;durP1;ratioP1;P1;durP2;ratioP2;P2;SDS_P1;SDS_P2;PMS_P1;PMS_P2;Temp;Humidity;BMP_temperature;BMP_pressure;BME280_temperature;BME280_humidity;BME280_pressure;Samples;Min_cycle;Max_cycle;Signal;HPM_P1;HPM_P2
2023/06/18 00:02:00;;;;;;;2.92;2.72;;;;;;;;;;5044157;28;20461;-54
2023/06/18 00:04:28;;;;;;;2.85;2.65;;;;;;;;;;5045497;28;20411;-55
2023/06/18 00:06:55;;;;;;;2.97;2.78;;;;;;;;;;5048373;28;20392;-53
2023/06/18 00:09:23;;;;;;;2.83;2.63;;;;;;;;;;5046356;28;20386;-54
2023/06/18 00:11:50;;;;;;;2.83;2.63;;;;;;;;;;5046427;28;20745;-54
2023/06/18 00:14:18;;;;;;;2.90;2.70;;;;;;;;;;5043525;28;20395;-55
2023/06/18 00:16:46;;;;;;;3.20;2.90;;;;;;;;;;5043050;28;20987;-55
2023/06/18 00:19:14;;;;;;;3.50;3.10;;;;;;;;;;5044571;28;20412;-54
2023/06/18 00:21:41;;;;;;;3.17;2.97;;;;;;;;;;5045501;28;20399;-54
2023/06/18 00:24:08;;;;;;;3.00;2.75;;;;;;;;;;5045257;28;20714;-54
2023/06/18 00:26:35;;;;;;;2.80;2.60;;;;;;;;;;5040044;28;20400;-53
2023/06/18 00:29:03;;;;;;;2.70;2.50;;;;;;;;;;5045058;28;20894;-54
2023/06/18 00:31:32;;;;;;;2.90;2.70;;;;;;;;;;5045142;28;20423;-54
2023/06/18 00:34:06;;;;;;;2.80;2.60;;;;;;;;;;5044947;28;20926;-54
2023/06/18 00:36:34;;;;;;;2.87;2.67;;;;;;;;;;5040394;28;20902;-54
2023/06/18 00:39:02;;;;;;;2.80;2.60;;;;;;;;;;5045571;28;20709;-53
2023/06/18 00:41:30;;;;;;;2.90;2.70;;;;;;;;;;5045465;28;20406;-54
2023/06/18 00:43:58;;;;;;;2.88;2.65;;;;;;;;;;5044957;28;20407;-54
2023/06/18 00:46:26;;;;;;;2.90;2.70;;;;;;;;;;5042160;28;20457;-54
2023/06/18 00:48:54;;;;;;;2.85;2.65;;;;;;;;;;5042975;28;20403;-54
2023/06/18 00:51:26;;;;;;;2.90;2.70;;;;;;;;;;5045635;28;20396;-54
2023/06/18 00:53:54;;;;;;;3.25;2.70;;;;;;;;;;5044644;28;20399;-53
2023/06/18 00:56:22;;;;;;;3.00;2.80;;;;;;;;;;5044873;28;20398;-54
2023/06/18 00:58:51;;;;;;;3.00;2.80;;;;;;;;;;5043198;28;20878;-54
2023/06/18 01:01:19;;;;;;;2.95;2.75;;;;;;;;;;5043570;28;20879;-54
2023/06/18 01:03:47;;;;;;;3.10;2.83;;;;;;;;;;5045044;28;20404;-55
2023/06/18 01:06:17;;;;;;;2.90;2.70;;;;;;;;;;5044991;28;20403;-55
2023/06/18 01:08:48;;;;;;;2.80;2.60;;;;;;;;;;5041595;28;20846;-53
2023/06/18 01:11:20;;;;;;;3.10;2.88;;;;;;;;;;5045788;28;20392;-54
2023/06/18 01:13:47;;;;;;;3.00;2.80;;;;;;;;;;5043269;28;20395;-53
2023/06/18 01:16:16;;;;;;;2.92;2.72;;;;;;;;;;5045242;28;20422;-54
2023/06/18 01:18:45;;;;;;;3.05;2.85;;;;;;;;;;5041108;28;20910;-54
2023/06/18 01:21:15;;;;;;;2.90;2.70;;;;;;;;;;5045133;28;20396;-53
2023/06/18 01:23:50;;;;;;;2.83;2.63;;;;;;;;;;5045747;28;20396;-54
2023/06/18 01:26:21;;;;;;;2.90;2.70;;;;;;;;;;5046472;28;20380;-52
2023/06/18 01:28:51;;;;;;;2.90;2.70;;;;;;;;;;5047941;28;20420;-53
2023/06/18 01:31:23;;;;;;;3.30;3.03;;;;;;;;;;5048660;28;20420;-53
2023/06/18 01:33:53;;;;;;;2.85;2.65;;;;;;;;;;5048427;28;20453;-54
2023/06/18 01:36:29;;;;;;;2.83;2.63;;;;;;;;;;5047533;28;20884;-55
2023/06/18 01:39:00;;;;;;;3.13;2.83;;;;;;;;;;5048547;28;20380;-54
2023/06/18 01:41:29;;;;;;;3.08;2.88;;;;;;;;;;5048345;28;20387;-54
2023/06/18 01:44:02;;;;;;;3.25;3.05;;;;;;;;;;5048191;28;20748;-54
2023/06/18 01:46:29;;;;;;;3.10;2.90;;;;;;;;;;5045208;28;20360;-54
2023/06/18 01:49:03;;;;;;;3.05;2.85;;;;;;;;;;5046732;28;20388;-53
2023/06/18 01:51:31;;;;;;;3.20;3.00;;;;;;;;;;5030617;28;20893;-53
2023/06/18 01:54:00;;;;;;;2.88;2.67;;;;;;;;;;5048255;28;20391;-55
2023/06/18 01:56:28;;;;;;;2.85;2.65;;;;;;;;;;5027372;28;20882;-54
2023/06/18 01:58:56;;;;;;;2.97;2.77;;;;;;;;;;5047849;28;20504;-53
2023/06/18 02:01:26;;;;;;;2.90;2.70;;;;;;;;;;5046654;28;20832;-54
2023/06/18 02:03:53;;;;;;;3.35;3.05;;;;;;;;;;5048022;28;20857;-54
2023/06/18 02:06:20;;;;;;;2.90;2.70;;;;;;;;;;5047503;28;20861;-54
2023/06/18 02:08:48;;;;;;;3.05;2.85;;;;;;;;;;5044991;28;21012;-53
2023/06/18 02:11:15;;;;;;;3.45;3.25;;;;;;;;;;5048124;28;20398;-53
2023/06/18 02:13:42;;;;;;;3.00;2.80;;;;;;;;;;5045619;28;20491;-55
2023/06/18 02:16:09;;;;;;;3.05;2.85;;;;;;;;;;5030389;28;20800;-53
2023/06/18 02:18:37;;;;;;;3.00;2.80;;;;;;;;;;5043686;28;20410;-54
2023/06/18 02:21:04;;;;;;;2.93;2.73;;;;;;;;;;5047129;28;20384;-54
2023/06/18 02:23:31;;;;;;;3.35;3.15;;;;;;;;;;5047801;28;20396;-54
2023/06/18 02:25:58;;;;;;;3.03;2.83;;;;;;;;;;5045559;28;20404;-54
2023/06/18 02:28:26;;;;;;;3.23;3.03;;;;;;;;;;5045149;28;20449;-54
2023/06/18 02:30:55;;;;;;;3.17;2.90;;;;;;;;;;5047037;28;20736;-54
2023/06/18 02:33:22;;;;;;;3.20;2.90;;;;;;;;;;5047699;28;20392;-54
2023/06/18 02:35:50;;;;;;;3.33;3.03;;;;;;;;;;5048869;28;20391;-54
2023/06/18 02:38:17;;;;;;;3.10;2.90;;;;;;;;;;5047118;28;20395;-54
2023/06/18 02:40:44;;;;;;;3.17;2.97;;;;;;;;;;5045067;28;20388;-53
2023/06/18 02:43:17;;;;;;;3.28;3.08;;;;;;;;;;5048463;28;20434;-54
2023/06/18 02:45:44;;;;;;;3.00;2.80;;;;;;;;;;5047805;28;20411;-54
2023/06/18 02:48:12;;;;;;;3.00;2.80;;;;;;;;;;5047719;28;20395;-53
2023/06/18 02:50:39;;;;;;;3.03;2.83;;;;;;;;;;5042367;28;20632;-54
2023/06/18 02:53:06;;;;;;;3.00;2.80;;;;;;;;;;5047726;28;20398;-53
2023/06/18 02:55:33;;;;;;;3.10;2.90;;;;;;;;;;5047117;28;20419;-53
2023/06/18 02:58:02;;;;;;;3.10;2.90;;;;;;;;;;5030765;28;20748;-54
2023/06/18 03:00:30;;;;;;;3.20;3.00;;;;;;;;;;5042600;28;20445;-54
2023/06/18 03:02:57;;;;;;;3.03;2.83;;;;;;;;;;5047397;28;20477;-54
2023/06/18 03:05:24;;;;;;;3.40;3.15;;;;;;;;;;5046513;28;20399;-53
2023/06/18 03:07:52;;;;;;;3.17;2.97;;;;;;;;;;5029478;28;20398;-54
2023/06/18 03:10:19;;;;;;;3.10;2.90;;;;;;;;;;5046854;28;20384;-54
2023/06/18 03:12:47;;;;;;;2.90;2.70;;;;;;;;;;5045163;28;20411;-53
2023/06/18 03:15:14;;;;;;;3.15;2.95;;;;;;;;;;5046629;28;20384;-53
2023/06/18 03:17:41;;;;;;;3.17;2.97;;;;;;;;;;5046401;28;20460;-53
2023/06/18 03:20:09;;;;;;;3.27;3.00;;;;;;;;;;5037663;28;20445;-53
2023/06/18 03:22:36;;;;;;;3.20;3.00;;;;;;;;;;5024349;28;20896;-54
2023/06/18 03:25:05;;;;;;;3.35;3.15;;;;;;;;;;5025386;28;20758;-54
2023/06/18 03:27:32;;;;;;;3.10;2.90;;;;;;;;;;5047075;28;20399;-54
2023/06/18 03:29:59;;;;;;;2.95;2.75;;;;;;;;;;5046606;28;20399;-53
2023/06/18 03:32:26;;;;;;;3.33;3.13;;;;;;;;;;5043974;28;20402;-54
2023/06/18 03:34:54;;;;;;;3.20;2.90;;;;;;;;;;5047233;28;20767;-54
2023/06/18 03:37:22;;;;;;;3.10;2.90;;;;;;;;;;5045041;28;20399;-54
2023/06/18 03:39:49;;;;;;;3.20;3.00;;;;;;;;;;5046815;28;20380;-53
2023/06/18 03:42:16;;;;;;;3.33;3.03;;;;;;;;;;5046753;28;20388;-53
2023/06/18 03:44:43;;;;;;;3.20;3.00;;;;;;;;;;5045575;28;20415;-52
2023/06/18 03:47:10;;;;;;;3.40;3.15;;;;;;;;;;5048442;28;20403;-54
2023/06/18 03:49:38;;;;;;;3.10;2.90;;;;;;;;;;5045097;28;20415;-53
2023/06/18 03:52:05;;;;;;;3.50;3.20;;;;;;;;;;5047167;28;20387;-54
2023/06/18 03:54:32;;;;;;;3.50;3.20;;;;;;;;;;5043079;28;20428;-53
2023/06/18 03:57:00;;;;;;;2.97;2.77;;;;;;;;;;5046537;28;20414;-53
2023/06/18 03:59:28;;;;;;;3.60;3.30;;;;;;;;;;5044871;28;20703;-53
2023/06/18 04:01:55;;;;;;;3.00;2.80;;;;;;;;;;5044378;28;20867;-53
2023/06/18 04:04:23;;;;;;;3.00;2.80;;;;;;;;;;5045510;28;20407;-54
2023/06/18 04:06:51;;;;;;;3.58;3.28;;;;;;;;;;5044927;28;20395;-54
2023/06/18 04:09:18;;;;;;;3.25;3.05;;;;;;;;;;5045709;28;20391;-53
2023/06/18 04:11:46;;;;;;;3.30;3.00;;;;;;;;;;5046221;28;20383;-53
2023/06/18 04:14:14;;;;;;;3.42;3.20;;;;;;;;;;5044484;28;20404;-53
2023/06/18 04:16:41;;;;;;;3.83;3.53;;;;;;;;;;5043096;28;20652;-53
2023/06/18 04:19:08;;;;;;;3.17;2.97;;;;;;;;;;5045215;28;20375;-52
2023/06/18 04:21:36;;;;;;;3.10;2.90;;;;;;;;;;5044928;28;23406;-53
2023/06/18 04:24:04;;;;;;;3.40;3.10;;;;;;;;;;5046354;28;20398;-54
2023/06/18 04:26:32;;;;;;;3.20;3.00;;;;;;;;;;5041570;28;20934;-52
2023/06/18 04:28:59;;;;;;;3.45;3.15;;;;;;;;;;5045999;28;20395;-54
2023/06/18 04:31:26;;;;;;;3.33;3.13;;;;;;;;;;5045591;28;20399;-54
2023/06/18 04:33:54;;;;;;;3.38;3.17;;;;;;;;;;5045288;28;20384;-55
2023/06/18 04:36:21;;;;;;;3.25;2.97;;;;;;;;;;5044000;28;20392;-54
2023/06/18 04:38:48;;;;;;;3.63;3.33;;;;;;;;;;5045312;28;20735;-53
2023/06/18 04:41:16;;;;;;;3.65;3.40;;;;;;;;;;5045814;28;20703;-54
2023/06/18 04:43:43;;;;;;;3.42;3.13;;;;;;;;;;5027686;28;20761;-53
2023/06/18 04:46:10;;;;;;;3.30;3.00;;;;;;;;;;5045369;28;20404;-55
2023/06/18 04:48:38;;;;;;;3.42;3.22;;;;;;;;;;5040512;28;20472;-54
2023/06/18 04:51:06;;;;;;;3.65;3.35;;;;;;;;;;5045759;28;20395;-54
2023/06/18 04:53:33;;;;;;;3.20;2.97;;;;;;;;;;5046223;28;20190;-53
2023/06/18 04:56:00;;;;;;;3.13;2.93;;;;;;;;;;5046332;28;20212;-55
2023/06/18 04:58:28;;;;;;;3.50;3.20;;;;;;;;;;5043023;28;20210;-54
2023/06/18 05:00:55;;;;;;;3.25;3.05;;;;;;;;;;5046464;28;20400;-54
2023/06/18 05:03:23;;;;;;;3.35;3.15;;;;;;;;;;5049434;28;20387;-54
2023/06/18 05:05:50;;;;;;;3.47;3.17;;;;;;;;;;5048848;28;20885;-54
2023/06/18 05:08:18;;;;;;;3.53;3.25;;;;;;;;;;5048594;28;20388;-54
2023/06/18 05:10:45;;;;;;;3.35;3.15;;;;;;;;;;5045818;28;20387;-54
2023/06/18 05:13:12;;;;;;;3.53;3.23;;;;;;;;;;5030166;28;20376;-54
2023/06/18 05:15:40;;;;;;;3.80;3.50;;;;;;;;;;5049429;28;20529;-55
2023/06/18 05:18:07;;;;;;;3.63;3.33;;;;;;;;;;5048597;28;20402;-53
2023/06/18 05:20:34;;;;;;;3.30;3.10;;;;;;;;;;5047256;28;20202;-55
2023/06/18 05:23:02;;;;;;;3.37;3.17;;;;;;;;;;5051499;28;20209;-53
2023/06/18 05:25:29;;;;;;;4.40;3.13;;;;;;;;;;5048940;28;20580;-55
2023/06/18 05:27:56;;;;;;;3.33;3.03;;;;;;;;;;5051249;28;20213;-55
2023/06/18 05:30:23;;;;;;;3.10;2.90;;;;;;;;;;5048458;28;20280;-54
2023/06/18 05:32:51;;;;;;;3.10;2.90;;;;;;;;;;5048657;28;20238;-55
2023/06/18 05:35:18;;;;;;;3.00;2.80;;;;;;;;;;5050324;28;20260;-54
2023/06/18 05:37:45;;;;;;;3.03;2.83;;;;;;;;;;5030448;28;20584;-54
2023/06/18 05:40:13;;;;;;;3.70;3.40;;;;;;;;;;5050067;28;20213;-54
2023/06/18 05:42:40;;;;;;;3.20;3.00;;;;;;;;;;5046834;28;20198;-53
2023/06/18 05:45:07;;;;;;;3.70;3.30;;;;;;;;;;5050540;28;20280;-54
2023/06/18 05:47:35;;;;;;;2.83;2.63;;;;;;;;;;5050287;28;20226;-54
2023/06/18 05:50:02;;;;;;;3.00;2.80;;;;;;;;;;5047073;28;20245;-54
2023/06/18 05:52:29;;;;;;;2.93;2.73;;;;;;;;;;5009385;28;20294;-55
2023/06/18 05:54:56;;;;;;;3.10;2.80;;;;;;;;;;5030161;28;20211;-54
2023/06/18 05:57:24;;;;;;;3.20;3.00;;;;;;;;;;5028946;28;20199;-54
2023/06/18 05:59:51;;;;;;;3.80;3.50;;;;;;;;;;5030398;28;20206;-53
2023/06/18 06:02:18;;;;;;;3.23;2.93;;;;;;;;;;5027597;28;20219;-55
2023/06/18 06:04:45;;;;;;;3.13;2.93;;;;;;;;;;5027106;28;20253;-55
2023/06/18 06:07:13;;;;;;;3.13;2.93;;;;;;;;;;5029959;28;20537;-54
2023/06/18 06:09:40;;;;;;;3.17;2.97;;;;;;;;;;5029501;28;20230;-54
2023/06/18 06:12:08;;;;;;;3.70;3.40;;;;;;;;;;5029088;28;20198;-54
2023/06/18 06:14:35;;;;;;;3.33;3.03;;;;;;;;;;5031030;28;20210;-54
2023/06/18 06:17:02;;;;;;;3.20;3.00;;;;;;;;;;5049030;28;20195;-55
2023/06/18 06:19:29;;;;;;;3.57;3.20;;;;;;;;;;5048357;28;20199;-54
2023/06/18 06:21:57;;;;;;;2.83;2.63;;;;;;;;;;5048671;28;20324;-54
2023/06/18 06:24:24;;;;;;;3.77;2.97;;;;;;;;;;5043587;28;20358;-54
2023/06/18 06:26:52;;;;;;;3.20;3.00;;;;;;;;;;5048853;28;20698;-54
2023/06/18 06:29:19;;;;;;;3.50;3.20;;;;;;;;;;5048314;28;20200;-54
2023/06/18 06:31:46;;;;;;;3.43;3.17;;;;;;;;;;5048500;28;20194;-55
2023/06/18 06:34:13;;;;;;;3.33;3.03;;;;;;;;;;5031473;28;20217;-56
2023/06/18 06:36:40;;;;;;;2.90;2.70;;;;;;;;;;5044182;28;20725;-53
2023/06/18 06:39:08;;;;;;;3.40;3.10;;;;;;;;;;5049079;28;20214;-55
2023/06/18 06:41:35;;;;;;;3.37;3.17;;;;;;;;;;5048984;28;20775;-53
2023/06/18 06:44:02;;;;;;;3.70;3.10;;;;;;;;;;5048872;28;20210;-54
2023/06/18 06:46:30;;;;;;;3.30;3.00;;;;;;;;;;5045675;28;20568;-54
2023/06/18 06:48:57;;;;;;;3.30;3.10;;;;;;;;;;5046671;28;20205;-55
2023/06/18 06:51:24;;;;;;;3.30;3.10;;;;;;;;;;5049237;28;20202;-54
2023/06/18 06:53:51;;;;;;;3.40;3.20;;;;;;;;;;5048761;28;20225;-55
2023/06/18 06:56:19;;;;;;;3.47;3.17;;;;;;;;;;5048958;28;20194;-55
2023/06/18 06:58:46;;;;;;;3.40;3.03;;;;;;;;;;5045527;28;20233;-55
2023/06/18 07:01:13;;;;;;;3.53;3.23;;;;;;;;;;5047121;28;20293;-53
2023/06/18 07:03:40;;;;;;;3.27;3.07;;;;;;;;;;5048201;28;20194;-55
2023/06/18 07:06:08;;;;;;;4.03;3.73;;;;;;;;;;5048197;28;20198;-55
2023/06/18 07:08:35;;;;;;;3.50;3.20;;;;;;;;;;5044614;28;20206;-55
2023/06/18 07:11:02;;;;;;;3.43;3.23;;;;;;;;;;5048157;28;20201;-55
2023/06/18 07:13:30;;;;;;;4.23;3.33;;;;;;;;;;5045505;28;20558;-54
2023/06/18 07:15:57;;;;;;;3.43;3.13;;;;;;;;;;5047980;28;20202;-53
2023/06/18 07:18:24;;;;;;;4.30;3.33;;;;;;;;;;5045344;28;20241;-55
2023/06/18 07:20:51;;;;;;;3.70;3.40;;;;;;;;;;5033583;28;20199;-54
2023/06/18 07:23:19;;;;;;;3.50;3.20;;;;;;;;;;5030392;28;20211;-54
2023/06/18 07:25:46;;;;;;;3.37;3.07;;;;;;;;;;5027647;28;20238;-53
2023/06/18 07:28:13;;;;;;;3.40;3.10;;;;;;;;;;5027980;28;20203;-55
2023/06/18 07:30:40;;;;;;;4.00;3.20;;;;;;;;;;5024313;28;20198;-54
2023/06/18 07:33:07;;;;;;;3.60;3.30;;;;;;;;;;5027855;28;20202;-55
2023/06/18 07:35:35;;;;;;;3.87;3.43;;;;;;;;;;5010414;28;20199;-55
2023/06/18 07:38:02;;;;;;;3.40;3.13;;;;;;;;;;5025119;28;20666;-54
2023/06/18 07:40:33;;;;;;;3.70;3.20;;;;;;;;;;5024495;28;20293;-54
2023/06/18 07:43:01;;;;;;;3.63;3.33;;;;;;;;;;5027277;28;20203;-55
2023/06/18 07:45:29;;;;;;;3.20;2.90;;;;;;;;;;5027455;28;20207;-54
2023/06/18 07:47:56;;;;;;;3.77;3.47;;;;;;;;;;5027309;28;20222;-55
2023/06/18 07:50:23;;;;;;;3.23;2.93;;;;;;;;;;5024460;28;20240;-54
2023/06/18 07:52:51;;;;;;;3.30;3.10;;;;;;;;;;5019571;28;20681;-54
2023/06/18 07:55:18;;;;;;;3.60;3.30;;;;;;;;;;5027235;28;20213;-54
2023/06/18 07:57:46;;;;;;;3.40;3.20;;;;;;;;;;5026300;28;20600;-55
2023/06/18 08:00:13;;;;;;;3.63;3.30;;;;;;;;;;5027652;28;20209;-53
2023/06/18 08:02:40;;;;;;;3.80;3.50;;;;;;;;;;5021917;28;20877;-52
2023/06/18 08:05:08;;;;;;;3.97;3.67;;;;;;;;;;5009464;28;20206;-53
2023/06/18 08:07:35;;;;;;;3.70;3.27;;;;;;;;;;5036745;28;20283;-54
2023/06/18 08:10:02;;;;;;;3.30;3.00;;;;;;;;;;5046639;28;20201;-55
2023/06/18 08:12:30;;;;;;;4.77;3.20;;;;;;;;;;5041082;28;20648;-55
2023/06/18 08:14:57;;;;;;;3.90;3.60;;;;;;;;;;5046033;28;20194;-54
2023/06/18 08:17:24;;;;;;;3.67;3.37;;;;;;;;;;5046727;28;20383;-54
2023/06/18 08:19:51;;;;;;;3.83;3.53;;;;;;;;;;5046279;28;20614;-54
2023/06/18 08:22:18;;;;;;;4.17;3.77;;;;;;;;;;5046732;28;20621;-55
2023/06/18 08:24:46;;;;;;;4.50;3.30;;;;;;;;;;5043568;28;20651;-54
2023/06/18 08:27:15;;;;;;;3.83;3.27;;;;;;;;;;5047117;28;20264;-54
2023/06/18 08:29:42;;;;;;;4.23;3.83;;;;;;;;;;5045908;28;20225;-55
2023/06/18 08:32:10;;;;;;;3.73;3.43;;;;;;;;;;5046700;28;20209;-55
2023/06/18 08:34:42;;;;;;;3.47;3.13;;;;;;;;;;5043381;28;20528;-55
2023/06/18 08:37:10;;;;;;;3.93;3.40;;;;;;;;;;5045340;28;20552;-54
2023/06/18 08:39:37;;;;;;;3.13;2.93;;;;;;;;;;5046272;28;20197;-55
2023/06/18 08:42:05;;;;;;;3.40;3.10;;;;;;;;;;5047249;28;20286;-54
2023/06/18 08:44:34;;;;;;;3.40;3.10;;;;;;;;;;5043493;28;20210;-55
2023/06/18 08:47:03;;;;;;;3.37;3.13;;;;;;;;;;5046578;28;20256;-54
2023/06/18 08:49:34;;;;;;;3.10;2.90;;;;;;;;;;5044120;28;20213;-54
2023/06/18 08:52:03;;;;;;;3.33;3.03;;;;;;;;;;5040226;28;20206;-54
2023/06/18 08:54:33;;;;;;;3.10;2.87;;;;;;;;;;5023605;28;20209;-54
2023/06/18 08:57:23;;;;;;;3.33;3.13;;;;;;;;;;5027203;28;20202;-54
2023/06/18 08:59:51;;;;;;;3.33;3.10;;;;;;;;;;4998608;28;20238;-54
2023/06/18 09:02:21;;;;;;;3.47;3.20;;;;;;;;;;5024427;28;20222;-54
2023/06/18 09:04:49;;;;;;;3.70;3.20;;;;;;;;;;5044888;28;20198;-54
2023/06/18 09:07:17;;;;;;;3.73;3.43;;;;;;;;;;5046098;28;20194;-54
2023/06/18 09:09:45;;;;;;;3.43;3.20;;;;;;;;;;5045853;28;20205;-55
2023/06/18 09:12:12;;;;;;;3.33;3.13;;;;;;;;;;5047633;28;20198;-54
2023/06/18 09:14:40;;;;;;;3.60;3.30;;;;;;;;;;5041742;28;20210;-54
2023/06/18 09:17:07;;;;;;;3.73;3.43;;;;;;;;;;5046507;28;20183;-54
2023/06/18 09:19:34;;;;;;;3.47;3.17;;;;;;;;;;5032048;28;20194;-54
2023/06/18 09:22:12;;;;;;;3.53;3.23;;;;;;;;;;5028690;28;20202;-54
2023/06/18 09:24:39;;;;;;;3.80;3.50;;;;;;;;;;5041575;28;20198;-53
2023/06/18 09:27:07;;;;;;;3.60;3.30;;;;;;;;;;5046542;28;20389;-55
2023/06/18 09:29:34;;;;;;;3.27;3.00;;;;;;;;;;5028199;28;20194;-53
2023/06/18 09:32:09;;;;;;;3.63;3.33;;;;;;;;;;5046239;28;20187;-54
2023/06/18 09:34:37;;;;;;;3.47;3.20;;;;;;;;;;5043584;28;20186;-54
2023/06/18 09:37:05;;;;;;;3.63;3.33;;;;;;;;;;5044753;28;20206;-54
2023/06/18 09:39:33;;;;;;;3.70;3.40;;;;;;;;;;5046045;28;20190;-55
2023/06/18 09:42:08;;;;;;;3.13;2.83;;;;;;;;;;5045890;28;20183;-54
2023/06/18 09:44:35;;;;;;;3.50;3.20;;;;;;;;;;5042692;28;20552;-55
2023/06/18 09:47:09;;;;;;;3.40;3.20;;;;;;;;;;5030802;28;20232;-54
2023/06/18 09:49:36;;;;;;;3.47;3.17;;;;;;;;;;5047402;28;20293;-55
2023/06/18 09:52:04;;;;;;;3.47;3.27;;;;;;;;;;5042154;28;20194;-55
2023/06/18 09:54:41;;;;;;;3.47;3.23;;;;;;;;;;5026592;28;20712;-55
2023/06/18 09:57:10;;;;;;;3.60;3.30;;;;;;;;;;5029633;28;20218;-54
2023/06/18 09:59:37;;;;;;;3.30;3.10;;;;;;;;;;5036657;28;20236;-55
2023/06/18 10:02:05;;;;;;;3.07;2.87;;;;;;;;;;5047713;28;20245;-54
2023/06/18 10:04:33;;;;;;;3.33;3.03;;;;;;;;;;5046203;28;20520;-53
2023/06/18 10:07:03;;;;;;;3.80;3.50;;;;;;;;;;5049002;28;20253;-54
2023/06/18 10:09:32;;;;;;;3.47;3.17;;;;;;;;;;5049324;28;20199;-55
2023/06/18 10:12:00;;;;;;;3.43;3.13;;;;;;;;;;5049583;28;20279;-54
2023/06/18 10:14:28;;;;;;;3.30;3.10;;;;;;;;;;5044644;28;20213;-54
2023/06/18 10:16:58;;;;;;;3.17;2.97;;;;;;;;;;5049281;28;20226;-53
2023/06/18 10:19:34;;;;;;;3.60;3.30;;;;;;;;;;5047284;28;20687;-55
2023/06/18 10:22:05;;;;;;;3.60;3.30;;;;;;;;;;5048951;28;20195;-54
2023/06/18 10:24:38;;;;;;;3.40;3.20;;;;;;;;;;5043976;28;20203;-55
2023/06/18 10:27:06;;;;;;;3.43;3.13;;;;;;;;;;5049510;28;20592;-54
2023/06/18 10:29:34;;;;;;;3.17;2.97;;;;;;;;;;5047985;28;20208;-54
2023/06/18 10:32:02;;;;;;;3.37;3.17;;;;;;;;;;5048414;28;20436;-54
2023/06/18 10:34:29;;;;;;;3.30;3.10;;;;;;;;;;5045753;28;20538;-53
2023/06/18 10:36:58;;;;;;;3.83;3.53;;;;;;;;;;5047121;28;20210;-54
2023/06/18 10:39:25;;;;;;;3.53;3.23;;;;;;;;;;5048603;28;20526;-54
2023/06/18 10:41:53;;;;;;;3.60;3.30;;;;;;;;;;5048904;28;20194;-54
2023/06/18 10:44:33;;;;;;;3.63;3.33;;;;;;;;;;5048292;28;20217;-54
2023/06/18 10:47:17;;;;;;;3.50;3.20;;;;;;;;;;5048597;28;20222;-54
2023/06/18 10:50:04;;;;;;;3.20;2.90;;;;;;;;;;5046627;28;20206;-54
2023/06/18 10:52:42;;;;;;;3.43;3.13;;;;;;;;;;5034204;28;20195;-54
2023/06/18 10:55:12;;;;;;;4.30;3.90;;;;;;;;;;5029325;28;20527;-54
2023/06/18 10:57:45;;;;;;;3.50;3.20;;;;;;;;;;5047687;28;20268;-54
2023/06/18 11:00:29;;;;;;;3.47;3.23;;;;;;;;;;5049595;28;20256;-54
2023/06/18 11:03:01;;;;;;;3.40;3.10;;;;;;;;;;5051204;28;20210;-53
2023/06/18 11:05:34;;;;;;;4.90;3.30;;;;;;;;;;5050139;28;20202;-55
2023/06/18 11:08:06;;;;;;;3.63;3.37;;;;;;;;;;5047799;28;20328;-55
2023/06/18 11:10:37;;;;;;;3.33;3.03;;;;;;;;;;5045128;28;20212;-53
2023/06/18 11:13:05;;;;;;;3.57;3.27;;;;;;;;;;5046180;28;20211;-53
2023/06/18 11:15:33;;;;;;;3.27;3.07;;;;;;;;;;5048794;28;20195;-54
2023/06/18 11:18:02;;;;;;;3.30;3.00;;;;;;;;;;5047232;28;20205;-54
2023/06/18 11:20:34;;;;;;;3.50;3.27;;;;;;;;;;5033520;28;20201;-54
2023/06/18 11:23:01;;;;;;;3.70;3.40;;;;;;;;;;5028112;28;20627;-54
2023/06/18 11:25:29;;;;;;;3.60;3.30;;;;;;;;;;5026436;28;20656;-54
2023/06/18 11:28:02;;;;;;;3.40;3.10;;;;;;;;;;5027645;28;20327;-54
2023/06/18 11:30:34;;;;;;;3.63;3.33;;;;;;;;;;5024736;28;20199;-54
2023/06/18 11:33:01;;;;;;;3.67;3.37;;;;;;;;;;5027751;28;20543;-54
2023/06/18 11:35:30;;;;;;;3.03;2.83;;;;;;;;;;5028041;28;20184;-53
2023/06/18 11:37:58;;;;;;;3.83;3.53;;;;;;;;;;5009068;28;20225;-54
2023/06/18 11:40:25;;;;;;;3.80;3.50;;;;;;;;;;5027160;28;20261;-54
2023/06/18 11:42:53;;;;;;;3.43;3.13;;;;;;;;;;5027132;28;20662;-54
2023/06/18 11:45:21;;;;;;;3.50;3.20;;;;;;;;;;5010117;28;20203;-55
2023/06/18 11:47:51;;;;;;;3.30;3.10;;;;;;;;;;5027276;28;20231;-55
2023/06/18 11:50:22;;;;;;;3.50;3.20;;;;;;;;;;5025885;28;20222;-55
2023/06/18 11:52:49;;;;;;;3.27;2.97;;;;;;;;;;5040494;28;20233;-54
2023/06/18 11:55:18;;;;;;;3.50;3.23;;;;;;;;;;5047148;28;20210;-53
2023/06/18 11:57:46;;;;;;;3.60;3.30;;;;;;;;;;5047333;28;20534;-54
2023/06/18 12:00:14;;;;;;;3.37;3.07;;;;;;;;;;5047977;28;20785;-54
2023/06/18 12:02:41;;;;;;;3.37;3.17;;;;;;;;;;5042531;28;21040;-55
2023/06/18 12:05:10;;;;;;;3.87;3.57;;;;;;;;;;5047262;28;20268;-54
2023/06/18 12:07:45;;;;;;;3.97;3.67;;;;;;;;;;5047263;28;20249;-54
2023/06/18 12:10:13;;;;;;;3.70;3.40;;;;;;;;;;5046954;28;20194;-54
2023/06/18 12:12:45;;;;;;;3.43;3.13;;;;;;;;;;5042874;28;20473;-54
2023/06/18 12:15:19;;;;;;;3.70;3.40;;;;;;;;;;5047678;28;20207;-54
2023/06/18 12:18:06;;;;;;;3.63;3.33;;;;;;;;;;5046887;28;20665;-54
2023/06/18 12:20:34;;;;;;;3.40;3.20;;;;;;;;;;5044928;28;20216;-55
2023/06/18 12:23:02;;;;;;;3.50;3.27;;;;;;;;;;5048211;28;20198;-55
2023/06/18 12:25:30;;;;;;;3.97;3.67;;;;;;;;;;5046153;28;20244;-54
2023/06/18 12:27:59;;;;;;;3.40;3.20;;;;;;;;;;5048746;28;20210;-54
2023/06/18 12:30:31;;;;;;;3.53;3.23;;;;;;;;;;5028939;28;20216;-55
2023/06/18 12:33:06;;;;;;;3.63;3.33;;;;;;;;;;5049621;28;20217;-54
2023/06/18 12:35:34;;;;;;;3.60;3.30;;;;;;;;;;5049889;28;20189;-54
2023/06/18 12:38:04;;;;;;;3.10;2.80;;;;;;;;;;5047953;28;20232;-53
2023/06/18 12:40:31;;;;;;;3.20;3.00;;;;;;;;;;5047695;28;20194;-53
2023/06/18 12:43:09;;;;;;;3.63;3.33;;;;;;;;;;5035522;28;20190;-54
2023/06/18 12:45:38;;;;;;;3.20;3.00;;;;;;;;;;5015028;28;20199;-55
2023/06/18 12:48:11;;;;;;;3.60;3.37;;;;;;;;;;5033899;28;20242;-54
2023/06/18 12:50:46;;;;;;;3.57;3.13;;;;;;;;;;5045073;28;20209;-53
2023/06/18 12:53:28;;;;;;;3.20;3.00;;;;;;;;;;5050444;28;20558;-55
2023/06/18 12:56:18;;;;;;;3.57;3.30;;;;;;;;;;5050546;28;20189;-53
2023/06/18 12:58:47;;;;;;;3.60;3.30;;;;;;;;;;5023885;28;20203;-54
2023/06/18 13:01:15;;;;;;;3.33;3.13;;;;;;;;;;5027725;28;20208;-53
2023/06/18 13:03:42;;;;;;;3.77;3.17;;;;;;;;;;5029226;28;20195;-53
2023/06/18 13:06:10;;;;;;;3.70;3.40;;;;;;;;;;5029092;28;20199;-53
2023/06/18 13:08:38;;;;;;;3.63;3.33;;;;;;;;;;5023966;28;20550;-53
2023/06/18 13:11:05;;;;;;;3.70;3.40;;;;;;;;;;5027189;28;20210;-52
2023/06/18 13:13:33;;;;;;;3.50;3.20;;;;;;;;;;5038551;28;20214;-54
2023/06/18 13:16:02;;;;;;;3.70;3.40;;;;;;;;;;5047132;28;20194;-54
2023/06/18 13:18:34;;;;;;;3.27;3.00;;;;;;;;;;5047784;28;20199;-53
2023/06/18 13:21:02;;;;;;;3.60;3.30;;;;;;;;;;5034764;28;20606;-56
